createdAt,value
2023-07-20T00:00:31.549Z,17.48
2023-07-20T00:03:20.512Z,17.52
2023-07-20T00:05:48.640Z,17.41
2023-07-20T00:08:17.621Z,17.21
2023-07-20T00:10:45.581Z,17.07
2023-07-20T00:13:14.042Z,17.03
2023-07-20T00:15:41.994Z,17.04
2023-07-20T00:18:10.122Z,17.03
2023-07-20T00:20:38.062Z,17.10
2023-07-20T00:23:06.542Z,17.02
2023-07-20T00:25:34.691Z,16.92
2023-07-20T00:28:03.052Z,16.87
2023-07-20T00:30:31.057Z,16.88
2023-07-20T00:32:59.131Z,16.88
2023-07-20T00:35:27.190Z,16.92
2023-07-20T00:37:55.424Z,17.00
2023-07-20T00:40:23.469Z,17.08
2023-07-20T00:42:51.459Z,17.14
2023-07-20T00:45:27.186Z,17.18
2023-07-20T00:47:55.297Z,17.25
2023-07-20T00:50:23.817Z,17.32
2023-07-20T00:52:51.917Z,17.38
2023-07-20T00:55:21.094Z,17.41
2023-07-20T00:57:49.201Z,17.41
2023-07-20T01:00:17.672Z,17.46
2023-07-20T01:02:46.709Z,17.51
2023-07-20T01:05:17.724Z,17.60
2023-07-20T01:08:08.714Z,17.65
2023-07-20T01:10:36.775Z,17.70
2023-07-20T01:13:08.150Z,17.77
2023-07-20T01:15:36.165Z,17.85
2023-07-20T01:18:05.821Z,17.92
2023-07-20T01:20:35.727Z,17.98
2023-07-20T01:23:29.258Z,18.06
2023-07-20T01:26:11.180Z,18.11
2023-07-20T01:29:31.166Z,18.15
2023-07-20T01:32:02.330Z,18.20
2023-07-20T01:34:31.543Z,18.22
2023-07-20T01:37:01.974Z,18.21
2023-07-20T01:39:30.733Z,18.18
2023-07-20T01:41:58.967Z,18.15
2023-07-20T01:44:26.955Z,18.11
2023-07-20T01:46:54.931Z,18.09
2023-07-20T01:49:23.020Z,18.07
2023-07-20T01:51:50.995Z,18.05
2023-07-20T01:54:19.070Z,18.01
2023-07-20T01:56:47.796Z,17.95
2023-07-20T01:59:15.844Z,17.86
2023-07-20T02:01:43.988Z,17.79
2023-07-20T02:04:13.615Z,17.70
2023-07-20T02:06:41.553Z,17.64
2023-07-20T02:09:09.585Z,17.62
2023-07-20T02:11:37.629Z,17.56
2023-07-20T02:14:05.611Z,17.46
2023-07-20T02:16:33.766Z,17.36
2023-07-20T02:19:01.805Z,17.33
2023-07-20T02:21:29.775Z,17.28
2023-07-20T02:23:57.737Z,17.21
2023-07-20T02:26:25.837Z,17.17
2023-07-20T02:28:54.057Z,17.13
2023-07-20T02:31:22.262Z,17.10
2023-07-20T02:33:50.420Z,17.09
2023-07-20T02:36:19.012Z,17.10
2023-07-20T02:38:47.611Z,17.08
2023-07-20T02:41:15.617Z,17.03
2023-07-20T02:43:43.612Z,17.02
2023-07-20T02:46:12.155Z,17.05
2023-07-20T02:48:40.199Z,17.03
2023-07-20T02:51:08.756Z,17.00
2023-07-20T02:53:37.747Z,16.97
2023-07-20T02:56:05.732Z,16.96
2023-07-20T02:58:38.347Z,16.95
2023-07-20T03:01:06.422Z,16.93
2023-07-20T03:03:39.935Z,16.91
2023-07-20T03:06:10.060Z,16.88
2023-07-20T03:08:38.083Z,16.84
2023-07-20T03:11:06.101Z,16.80
2023-07-20T03:13:34.052Z,16.73
2023-07-20T03:16:02.120Z,16.69
2023-07-20T03:18:30.613Z,16.62
2023-07-20T03:20:58.576Z,16.59
2023-07-20T03:23:27.623Z,16.51
2023-07-20T03:25:56.419Z,16.45
2023-07-20T03:28:24.812Z,16.33
2023-07-20T03:30:58.023Z,16.24
2023-07-20T03:33:28.774Z,16.20
2023-07-20T03:35:58.132Z,16.14
2023-07-20T03:38:28.313Z,16.07
2023-07-20T03:40:59.036Z,16.01
2023-07-20T03:43:28.628Z,15.97
2023-07-20T03:45:58.017Z,15.96
2023-07-20T03:48:27.168Z,15.94
2023-07-20T03:50:55.519Z,15.90
2023-07-20T03:53:23.493Z,15.84
2023-07-20T03:55:53.066Z,15.82
2023-07-20T03:58:22.713Z,15.83
2023-07-20T04:00:52.585Z,15.81
2023-07-20T04:03:21.469Z,15.78
2023-07-20T04:05:49.636Z,15.79
2023-07-20T04:08:18.635Z,15.78
2023-07-20T04:10:46.726Z,15.78
2023-07-20T04:13:14.712Z,15.79
2023-07-20T04:15:44.028Z,15.79
2023-07-20T04:18:12.068Z,15.80
2023-07-20T04:20:40.076Z,15.79
2023-07-20T04:23:08.176Z,15.79
2023-07-20T04:25:40.698Z,15.80
2023-07-20T04:28:11.142Z,15.78
2023-07-20T04:30:43.647Z,15.78
2023-07-20T04:33:12.196Z,15.74
2023-07-20T04:35:53.666Z,15.68
2023-07-20T04:38:34.515Z,15.66
2023-07-20T04:41:16.125Z,15.66
2023-07-20T04:43:47.208Z,15.62
2023-07-20T04:46:20.569Z,15.61
2023-07-20T04:48:49.254Z,15.67
2023-07-20T04:51:22.041Z,15.73
2023-07-20T04:53:52.552Z,15.73
2023-07-20T04:56:20.889Z,15.74
2023-07-20T04:58:49.174Z,15.77
2023-07-20T05:01:17.428Z,15.79
2023-07-20T05:03:45.727Z,15.87
2023-07-20T05:06:14.076Z,16.01
2023-07-20T05:08:42.281Z,16.13
2023-07-20T05:11:10.402Z,16.16
2023-07-20T05:13:38.935Z,16.21
2023-07-20T05:16:07.078Z,16.27
2023-07-20T05:18:35.655Z,16.30
2023-07-20T05:21:03.845Z,16.36
2023-07-20T05:23:31.778Z,16.39
2023-07-20T05:26:00.626Z,16.37
2023-07-20T05:28:28.707Z,16.39
2023-07-20T05:30:56.733Z,16.50
2023-07-20T05:33:24.670Z,16.59
2023-07-20T05:35:52.569Z,16.63
2023-07-20T05:38:21.297Z,16.68
2023-07-20T05:40:49.274Z,16.70
2023-07-20T05:43:17.271Z,16.74
2023-07-20T05:45:46.456Z,16.81
2023-07-20T05:48:14.591Z,16.97
2023-07-20T05:50:45.584Z,17.11
2023-07-20T05:53:13.613Z,17.30
2023-07-20T05:55:41.956Z,17.67
2023-07-20T05:58:09.946Z,17.67
2023-07-20T06:00:38.000Z,17.54
2023-07-20T06:03:05.952Z,17.45
2023-07-20T06:05:33.962Z,17.38
2023-07-20T06:08:02.459Z,17.38
2023-07-20T06:10:30.478Z,17.34
2023-07-20T06:12:58.565Z,17.33
2023-07-20T06:15:33.548Z,17.29
2023-07-20T06:18:02.270Z,17.22
2023-07-20T06:20:30.386Z,17.19
2023-07-20T06:22:58.435Z,17.28
2023-07-20T06:25:26.630Z,17.42
2023-07-20T06:27:56.963Z,17.48
2023-07-20T06:30:25.442Z,17.38
2023-07-20T06:32:53.451Z,17.35
2023-07-20T06:35:21.999Z,17.34
2023-07-20T06:37:49.992Z,17.40
2023-07-20T06:45:20.265Z,17.87
2023-07-20T06:47:48.291Z,17.96
2023-07-20T06:50:18.432Z,18.01
2023-07-20T06:52:49.284Z,18.00
2023-07-20T06:55:23.236Z,18.01
2023-07-20T06:57:52.784Z,18.09
2023-07-20T07:00:21.274Z,18.24
2023-07-20T07:02:50.785Z,18.32
2023-07-20T07:05:21.274Z,18.38
2023-07-20T07:07:50.267Z,18.47
2023-07-20T07:10:19.585Z,18.55
2023-07-20T07:12:48.338Z,18.67
2023-07-20T07:15:17.470Z,18.70
2023-07-20T07:17:45.864Z,18.76
2023-07-20T07:20:21.128Z,18.76
2023-07-20T07:22:52.635Z,18.70
2023-07-20T07:25:23.523Z,18.78
2023-07-20T07:27:53.996Z,19.01
2023-07-20T07:30:22.062Z,19.19
2023-07-20T07:32:50.391Z,19.20
2023-07-20T07:35:18.845Z,19.23
2023-07-20T07:38:03.904Z,19.22
2023-07-20T07:40:35.855Z,19.15
2023-07-20T07:43:04.764Z,19.07
2023-07-20T07:45:37.825Z,18.97
2023-07-20T07:48:09.529Z,18.83
2023-07-20T07:50:37.498Z,18.77
2023-07-20T07:53:05.422Z,18.84
2023-07-20T07:55:33.357Z,18.87
2023-07-20T07:58:01.293Z,19.05
2023-07-20T08:00:29.286Z,19.23
2023-07-20T08:02:57.344Z,19.28
2023-07-20T08:05:25.576Z,19.32
2023-07-20T08:07:54.246Z,19.31
2023-07-20T08:10:23.229Z,19.28
2023-07-20T08:12:51.148Z,19.24
2023-07-20T08:15:19.204Z,19.28
2023-07-20T08:17:47.391Z,19.32
2023-07-20T08:20:17.564Z,19.35
2023-07-20T08:22:47.662Z,19.38
2023-07-20T08:25:16.724Z,19.48
2023-07-20T08:27:47.479Z,19.66
2023-07-20T08:30:15.435Z,19.79
2023-07-20T08:32:43.435Z,19.97
2023-07-20T08:35:11.382Z,19.99
2023-07-20T08:37:39.589Z,19.99
2023-07-20T08:40:11.043Z,20.09
2023-07-20T08:42:40.055Z,20.20
2023-07-20T08:45:10.469Z,20.32
2023-07-20T08:47:39.269Z,20.29
2023-07-20T08:50:09.306Z,20.16
2023-07-20T08:52:37.648Z,20.07
2023-07-20T08:55:06.458Z,19.99
2023-07-20T08:57:34.945Z,20.00
2023-07-20T09:00:08.561Z,20.08
2023-07-20T09:02:40.747Z,20.31
2023-07-20T09:05:15.422Z,20.48
2023-07-20T09:07:43.614Z,20.55
2023-07-20T09:10:12.721Z,20.55
2023-07-20T09:12:42.326Z,20.53
2023-07-20T09:15:13.001Z,20.39
2023-07-20T09:17:46.617Z,20.38
2023-07-20T09:20:16.656Z,20.40
2023-07-20T09:22:44.878Z,20.36
2023-07-20T09:25:17.739Z,20.23
2023-07-20T09:27:48.194Z,20.19
2023-07-20T09:30:19.171Z,20.21
2023-07-20T09:32:54.610Z,20.20
2023-07-20T09:35:27.627Z,20.09
2023-07-20T09:50:55.074Z,20.94
2023-07-20T09:53:26.500Z,21.14
2023-07-20T09:55:55.655Z,21.26
2023-07-20T09:58:23.830Z,21.15
2023-07-20T10:00:54.216Z,20.98
2023-07-20T10:03:29.760Z,20.75
2023-07-20T10:06:08.733Z,20.58
2023-07-20T10:11:15.541Z,20.52
2023-07-20T10:13:46.170Z,20.73
2023-07-20T10:16:29.395Z,21.07
2023-07-20T10:19:18.056Z,21.28
2023-07-20T10:21:59.506Z,21.27
2023-07-20T10:24:29.174Z,21.04
2023-07-20T10:26:57.431Z,20.82
2023-07-20T10:29:26.474Z,20.75
2023-07-20T10:31:56.158Z,20.85
2023-07-20T10:34:24.945Z,21.03
2023-07-20T10:36:55.838Z,21.27
2023-07-20T10:39:26.054Z,21.58
2023-07-20T10:42:11.045Z,21.81
2023-07-20T10:44:40.223Z,21.92
2023-07-20T10:47:13.476Z,21.75
2023-07-20T10:50:01.892Z,21.55
2023-07-20T10:52:42.255Z,21.28
2023-07-20T10:55:18.124Z,21.12
2023-07-20T10:58:11.000Z,21.11
2023-07-20T11:00:57.195Z,21.16
2023-07-20T11:03:35.752Z,21.18
2023-07-20T11:06:36.159Z,21.17
2023-07-20T11:09:09.973Z,21.28
2023-07-20T11:11:39.575Z,21.34
2023-07-20T11:14:10.548Z,21.47
2023-07-20T11:16:44.782Z,21.64
2023-07-20T11:20:23.024Z,21.67
2023-07-20T11:22:09.065Z,21.72
2023-07-20T11:24:41.722Z,21.99
2023-07-20T11:27:09.819Z,22.25
2023-07-20T11:29:38.902Z,22.42
2023-07-20T11:32:07.348Z,22.58
2023-07-20T11:34:36.691Z,22.76
2023-07-20T11:39:37.747Z,22.79
2023-07-20T11:42:06.435Z,22.98
2023-07-20T11:44:34.459Z,23.31
2023-07-20T11:47:08.586Z,23.66
2023-07-20T11:49:44.195Z,23.81
2023-07-20T11:52:17.033Z,23.73
2023-07-20T11:54:48.663Z,23.54
2023-07-20T11:57:19.154Z,23.37
2023-07-20T12:00:06.664Z,23.31
2023-07-20T12:02:34.576Z,23.45
2023-07-20T12:05:04.157Z,23.54
2023-07-20T12:07:41.054Z,23.49
2023-07-20T12:10:11.599Z,23.55
2023-07-20T12:12:44.779Z,23.65
2023-07-20T12:15:33.245Z,23.55
2023-07-20T12:18:03.335Z,23.47
2023-07-20T12:20:32.882Z,23.49
2023-07-20T12:23:03.960Z,23.51
2023-07-20T12:25:40.606Z,23.80
2023-07-20T12:28:10.930Z,24.07
2023-07-20T12:30:39.815Z,24.20
2023-07-20T12:33:08.327Z,24.33
2023-07-20T12:35:36.399Z,24.45
2023-07-20T12:38:04.419Z,24.44
2023-07-20T12:40:32.375Z,24.34
2023-07-20T12:43:00.366Z,24.55
2023-07-20T12:45:28.669Z,24.86
2023-07-20T12:47:56.617Z,24.99
2023-07-20T12:50:24.598Z,24.95
2023-07-20T12:52:52.503Z,24.72
2023-07-20T12:55:21.176Z,24.82
2023-07-20T12:57:49.234Z,25.02
2023-07-20T13:00:17.775Z,24.80
2023-07-20T13:02:45.883Z,24.66
2023-07-20T13:05:13.806Z,24.50
2023-07-20T13:10:13.553Z,24.10
2023-07-20T13:12:41.645Z,23.93
2023-07-20T13:15:11.755Z,23.80
2023-07-20T13:17:40.983Z,23.93
2023-07-20T13:20:12.200Z,24.17
2023-07-20T13:22:40.724Z,24.41
2023-07-20T13:25:09.261Z,24.60
2023-07-20T13:27:39.091Z,24.39
2023-07-20T13:30:09.855Z,24.19
2023-07-20T13:32:41.353Z,23.96
2023-07-20T13:35:13.253Z,23.84
2023-07-20T13:37:42.572Z,23.99
2023-07-20T13:40:14.664Z,24.06
2023-07-20T13:42:42.807Z,23.94
2023-07-20T13:45:10.956Z,24.12
2023-07-20T13:47:39.057Z,24.52
2023-07-20T13:50:07.815Z,24.88
2023-07-20T13:55:07.705Z,25.02
2023-07-20T13:57:35.912Z,24.96
2023-07-20T14:00:05.447Z,24.85
2023-07-20T14:07:44.459Z,24.28
2023-07-20T14:12:43.389Z,25.00
2023-07-20T14:15:12.432Z,25.15
2023-07-20T14:17:40.528Z,24.95
2023-07-20T14:20:22.102Z,24.72
2023-07-20T14:22:52.033Z,24.38
2023-07-20T14:25:20.635Z,24.06
2023-07-20T14:27:48.861Z,23.72
2023-07-20T14:30:16.989Z,23.45
2023-07-20T14:32:46.155Z,23.15
2023-07-20T14:35:15.363Z,22.87
2023-07-20T14:37:43.364Z,22.71
2023-07-20T14:40:12.410Z,22.55
2023-07-20T14:42:40.618Z,22.42
2023-07-20T14:45:09.331Z,22.29
2023-07-20T14:47:37.440Z,22.17
2023-07-20T14:50:07.414Z,22.18
2023-07-20T14:52:35.357Z,22.30
2023-07-20T14:55:03.271Z,22.41
2023-07-20T14:57:31.240Z,22.48
2023-07-20T14:59:59.196Z,22.52
2023-07-20T15:02:27.362Z,22.53
2023-07-20T15:04:56.990Z,22.50
2023-07-20T15:07:25.120Z,22.42
2023-07-20T15:09:53.399Z,22.36
2023-07-20T15:12:21.371Z,22.26
2023-07-20T15:15:07.458Z,21.80
2023-07-20T15:17:36.872Z,20.92
2023-07-20T15:20:06.560Z,20.43
2023-07-20T15:22:35.617Z,19.98
2023-07-20T15:25:05.370Z,19.61
2023-07-20T15:27:34.113Z,19.40
2023-07-20T15:30:02.720Z,19.25
2023-07-20T15:33:10.129Z,19.20
2023-07-20T15:35:18.958Z,19.07
2023-07-20T15:37:47.623Z,19.05
2023-07-20T15:40:15.597Z,19.12
2023-07-20T15:42:43.731Z,19.11
2023-07-20T15:45:11.874Z,19.02
2023-07-20T15:47:39.937Z,19.03
2023-07-20T15:50:08.283Z,19.16
2023-07-20T15:52:36.292Z,19.25
2023-07-20T15:55:05.830Z,19.57
2023-07-20T15:57:34.877Z,19.85
2023-07-20T16:00:06.060Z,20.13
2023-07-20T16:02:40.669Z,20.59
2023-07-20T16:07:44.522Z,20.82
2023-07-20T16:10:12.624Z,20.68
2023-07-20T16:12:42.318Z,20.52
2023-07-20T16:15:11.342Z,20.40
2023-07-20T16:17:39.379Z,20.64
2023-07-20T16:20:08.897Z,20.91
2023-07-20T16:22:37.366Z,21.14
2023-07-20T16:25:05.647Z,21.26
2023-07-20T16:27:33.583Z,21.48
2023-07-20T16:30:02.729Z,21.78
2023-07-20T16:32:30.734Z,21.97
2023-07-20T16:35:11.691Z,21.60
2023-07-20T16:37:40.091Z,21.30
2023-07-20T16:45:14.855Z,20.97
2023-07-20T16:47:42.977Z,21.10
2023-07-20T16:50:11.518Z,21.39
2023-07-20T16:52:39.520Z,21.74
2023-07-20T16:55:08.161Z,22.09
2023-07-20T16:57:36.602Z,22.35
2023-07-20T17:00:08.781Z,22.54
2023-07-20T17:02:37.956Z,22.69
2023-07-20T17:05:10.979Z,23.02
2023-07-20T17:07:40.204Z,23.17
2023-07-20T17:10:11.301Z,23.04
2023-07-20T17:12:41.326Z,22.83
2023-07-20T17:15:09.694Z,22.56
2023-07-20T17:17:37.712Z,22.24
2023-07-20T17:22:39.745Z,21.55
2023-07-20T17:30:11.773Z,20.66
2023-07-20T17:32:39.950Z,20.43
2023-07-20T17:35:08.328Z,20.32
2023-07-20T17:45:13.491Z,19.96
2023-07-20T17:47:42.409Z,20.09
2023-07-20T17:50:13.612Z,20.21
2023-07-20T17:52:42.764Z,20.43
2023-07-20T17:55:10.672Z,20.61
2023-07-20T17:57:38.682Z,20.83
2023-07-20T18:02:43.044Z,21.26
2023-07-20T18:05:11.290Z,21.15
2023-07-20T18:07:41.991Z,21.03
2023-07-20T18:10:10.476Z,20.95
2023-07-20T18:12:38.952Z,20.89
2023-07-20T18:15:07.355Z,20.75
2023-07-20T18:17:36.736Z,20.62
2023-07-20T18:20:06.795Z,20.53
2023-07-20T18:22:34.998Z,20.47
2023-07-20T18:25:06.080Z,20.40
2023-07-20T18:27:34.443Z,20.39
2023-07-20T18:30:02.437Z,20.42
2023-07-20T18:32:30.407Z,20.47
2023-07-20T18:34:58.446Z,20.52
2023-07-20T18:37:26.468Z,20.57
2023-07-20T18:39:54.907Z,20.64
2023-07-20T18:42:22.899Z,20.66
2023-07-20T18:44:52.181Z,20.64
2023-07-20T18:47:20.220Z,20.67
2023-07-20T18:49:48.277Z,20.71
2023-07-20T18:52:16.204Z,20.71
2023-07-20T18:54:44.635Z,20.69
2023-07-20T18:57:12.636Z,20.64
2023-07-20T18:59:42.436Z,20.54
2023-07-20T19:02:10.518Z,20.47
2023-07-20T19:04:38.518Z,20.37
2023-07-20T19:07:07.535Z,20.34
2023-07-20T19:09:35.596Z,20.32
2023-07-20T19:12:03.900Z,20.26
2023-07-20T19:14:31.912Z,20.22
2023-07-20T19:17:00.112Z,20.16
2023-07-20T19:19:30.148Z,20.05
2023-07-20T19:21:59.121Z,20.02
2023-07-20T19:24:27.055Z,19.96
2023-07-20T19:26:55.016Z,19.92
2023-07-20T19:29:22.999Z,19.89
2023-07-20T19:31:50.956Z,19.78
2023-07-20T19:34:19.110Z,19.68
2023-07-20T19:36:47.693Z,19.55
2023-07-20T19:39:15.925Z,19.52
2023-07-20T19:41:43.867Z,19.46
2023-07-20T19:44:12.286Z,19.31
2023-07-20T19:46:40.670Z,19.17
2023-07-20T19:49:08.893Z,19.09
2023-07-20T19:51:38.166Z,19.01
2023-07-20T19:56:39.203Z,18.98
2023-07-20T19:59:07.187Z,19.00
2023-07-20T20:06:37.032Z,19.02
2023-07-20T20:09:05.865Z,19.04
2023-07-20T20:11:33.913Z,19.11
2023-07-20T20:14:02.334Z,19.15
2023-07-20T20:16:30.460Z,19.17
2023-07-20T20:18:58.476Z,19.15
2023-07-20T20:21:26.521Z,19.09
2023-07-20T20:23:54.700Z,18.71
2023-07-20T20:26:23.407Z,18.50
2023-07-20T20:28:51.614Z,18.51
2023-07-20T20:31:19.588Z,18.15
2023-07-20T20:33:47.586Z,17.69
2023-07-20T20:36:17.258Z,17.39
2023-07-20T20:38:45.199Z,17.13
2023-07-20T20:41:13.193Z,16.84
2023-07-20T20:43:41.572Z,16.87
2023-07-20T20:46:14.553Z,17.10
2023-07-20T20:48:46.808Z,16.84
2023-07-20T20:51:15.054Z,16.46
2023-07-20T20:53:43.299Z,16.10
2023-07-20T20:56:11.320Z,15.82
2023-07-20T20:58:39.269Z,15.58
2023-07-20T21:01:09.478Z,15.39
2023-07-20T21:03:37.507Z,15.26
2023-07-20T21:06:06.474Z,15.15
2023-07-20T21:08:34.772Z,15.01
2023-07-20T21:11:03.360Z,14.90
2023-07-20T21:13:34.038Z,14.81
2023-07-20T21:16:01.958Z,14.76
2023-07-20T21:18:30.154Z,14.78
2023-07-20T21:20:58.098Z,14.76
2023-07-20T21:23:26.372Z,14.67
2023-07-20T21:25:54.282Z,14.64
2023-07-20T21:28:22.864Z,14.59
2023-07-20T21:31:08.164Z,14.54
2023-07-20T21:33:36.468Z,14.63
2023-07-20T21:36:06.711Z,14.92
2023-07-20T21:38:38.701Z,15.03
2023-07-20T21:41:07.848Z,15.21
2023-07-20T21:43:35.875Z,15.35
2023-07-20T21:46:03.952Z,15.40
2023-07-20T21:48:31.940Z,15.53
2023-07-20T21:51:00.430Z,15.57
2023-07-20T21:53:28.443Z,15.45
2023-07-20T21:55:56.498Z,15.35
2023-07-20T21:58:24.380Z,15.28
2023-07-20T22:00:56.911Z,15.26
2023-07-20T22:03:25.178Z,15.38
2023-07-20T22:05:57.260Z,15.55
2023-07-20T22:08:26.189Z,15.52
2023-07-20T22:10:54.767Z,15.43
2023-07-20T22:13:22.981Z,15.43
2023-07-20T22:15:53.524Z,15.51
2023-07-20T22:18:35.445Z,15.52
2023-07-20T22:21:06.330Z,15.42
2023-07-20T22:23:36.110Z,15.37
2023-07-20T22:26:04.364Z,15.34
2023-07-20T22:28:33.042Z,15.31
2023-07-20T22:31:01.184Z,15.28
2023-07-20T22:33:29.255Z,15.25
2023-07-20T22:35:57.217Z,15.27
2023-07-20T22:38:25.563Z,15.36
2023-07-20T22:40:53.700Z,15.35
2023-07-20T22:43:26.621Z,15.28
2023-07-20T22:45:56.030Z,15.20
2023-07-20T22:48:27.155Z,15.14
2023-07-20T22:50:59.837Z,15.17
2023-07-20T22:53:30.657Z,15.24
2023-07-20T22:55:59.249Z,15.19
2023-07-20T22:58:27.247Z,15.07
2023-07-20T23:00:55.365Z,15.06
2023-07-20T23:03:24.556Z,15.11
2023-07-20T23:05:52.918Z,15.20
2023-07-20T23:08:20.840Z,15.10
2023-07-20T23:10:48.795Z,14.97
2023-07-20T23:13:17.637Z,14.88
2023-07-20T23:15:45.822Z,14.79
2023-07-20T23:18:13.942Z,14.75
2023-07-20T23:20:41.988Z,14.78
2023-07-20T23:23:09.995Z,14.73
2023-07-20T23:25:37.993Z,14.76
2023-07-20T23:28:05.913Z,14.79
2023-07-20T23:30:34.539Z,14.67
2023-07-20T23:33:02.629Z,14.59
2023-07-20T23:35:30.765Z,14.45
2023-07-20T23:38:02.175Z,14.29
2023-07-20T23:40:30.180Z,14.19
2023-07-20T23:42:58.192Z,14.18
2023-07-20T23:45:26.212Z,14.15
2023-07-20T23:47:54.223Z,14.04
2023-07-20T23:50:22.409Z,13.98
2023-07-20T23:52:50.694Z,13.93
2023-07-20T23:55:18.726Z,13.86
2023-07-20T23:57:46.854Z,13.82
